Current Weather



TAF Data Links

METAR Data Links

Latest METAR/TAF Data


Available data for KAUS from the past 2 hours
AUSTIN, TX
Metar
KAUS 162153Z 35015KT 10SM OVC010 11/09 A3015 RMK AO2 SLP213 T01060089

21:53 UTC

Wind: 350° 15kt

Visibility: 10 SM

Sky: OVC 1000 ft

Temp: 11 deg C / 51.8 deg F

Dewpoint: 9 deg C / 48.2 deg F

Pressure: 30.15 inHg

TAF
KAUS 162117Z 1621/1724 35014KT P6SM VCSH OVC009 FM170500 36013KT 6SM -DZ OVC008


Available data for KEDC from the past 2 hours
AUSTIN EXEC, TX
Metar
KEDC 162215Z AUTO 01013G19KT 10SM OVC009 09/09 A3017 RMK AO2

22:15 UTC

Wind: 10° 13kt

Visibility: 10 SM

Sky: OVC 900 ft

Temp: 9 deg C / 48.2 deg F

Dewpoint: 9 deg C / 48.2 deg F

Pressure: 30.17 inHg



Available data for KRYW from the past 2 hours
LAGO VISTA, TX
Metar
KRYW 162215Z AUTO 35008KT 5SM +RA OVC006 09/09 A3017 RMK AO2 T00870087

22:15 UTC

Wind: 350° 8kt

Visibility: 5 SM

Sky: OVC 600 ft

Temp: 9 deg C / 48.2 deg F

Dewpoint: 9 deg C / 48.2 deg F

Pressure: 30.17 inHg